Time;durP1;ratioP1;P1;durP2;ratioP2;P2;SDS_P1;SDS_P2;PMS_P1;PMS_P2;Temp;Humidity;BMP_temperature;BMP_pressure;BME280_temperature;BME280_humidity;BME280_pressure;Samples;Min_cycle;Max_cycle;Signal;HPM_P1;HPM_P2
2024/01/25 00:01:19;;;;;;;537.03;271.50;;;2.70;99.90;;;;;;5096503;28;20027;-58
2024/01/25 00:03:45;;;;;;;604.20;306.90;;;2.80;99.90;;;;;;5096492;28;20587;-57
2024/01/25 00:06:11;;;;;;;584.63;299.05;;;2.70;99.90;;;;;;5095824;28;20339;-58
2024/01/25 00:08:37;;;;;;;541.05;268.15;;;2.80;99.90;;;;;;5096141;28;20024;-58
2024/01/25 00:11:03;;;;;;;522.90;254.70;;;2.80;99.90;;;;;;5096312;28;20134;-58
2024/01/25 00:13:30;;;;;;;501.30;245.05;;;2.80;99.90;;;;;;5096309;28;20032;-58
2024/01/25 00:15:56;;;;;;;528.22;256.98;;;2.80;99.90;;;;;;5096194;28;20028;-57
2024/01/25 00:18:21;;;;;;;458.33;216.48;;;2.70;99.90;;;;;;5095995;28;20504;-58
2024/01/25 00:20:47;;;;;;;395.10;180.88;;;2.70;99.90;;;;;;5096118;28;20028;-57
2024/01/25 00:23:13;;;;;;;395.33;177.13;;;2.90;99.90;;;;;;5096005;28;20028;-58
2024/01/25 00:25:39;;;;;;;383.80;174.18;;;3.00;99.90;;;;;;5095942;28;20043;-58
2024/01/25 00:28:05;;;;;;;397.90;178.45;;;2.90;99.90;;;;;;5095842;28;20036;-58
2024/01/25 00:30:31;;;;;;;393.67;179.63;;;2.80;99.90;;;;;;5095990;28;20477;-57
2024/01/25 00:32:57;;;;;;;400.23;185.90;;;2.90;99.90;;;;;;5095929;28;20024;-57
2024/01/25 00:35:24;;;;;;;398.65;189.23;;;3.00;99.90;;;;;;5095933;28;20024;-58
2024/01/25 00:37:51;;;;;;;401.38;184.70;;;3.10;99.90;;;;;;5095855;28;20028;-58
2024/01/25 00:40:18;;;;;;;395.88;186.93;;;3.10;99.90;;;;;;5095842;28;20385;-58
2024/01/25 00:42:52;;;;;;;380.55;181.52;;;3.20;99.90;;;;;;5095723;28;20136;-58
2024/01/25 00:45:23;;;;;;;394.90;188.23;;;3.20;99.90;;;;;;5096024;28;20036;-58
2024/01/25 00:47:50;;;;;;;437.55;214.25;;;3.00;99.90;;;;;;5095975;28;20024;-58
2024/01/25 00:50:17;;;;;;;460.77;223.60;;;3.00;99.90;;;;;;5095737;28;20036;-58
2024/01/25 00:52:46;;;;;;;477.52;228.38;;;3.10;99.90;;;;;;5095657;28;20024;-58
2024/01/25 00:55:13;;;;;;;447.50;219.43;;;3.10;99.90;;;;;;5095784;28;20087;-58
2024/01/25 00:57:39;;;;;;;488.70;231.77;;;3.10;99.90;;;;;;5095420;28;20438;-58
2024/01/25 01:00:06;;;;;;;516.88;247.63;;;3.10;99.90;;;;;;5095654;28;20020;-57
2024/01/25 01:02:36;;;;;;;546.45;274.88;;;3.10;99.90;;;;;;5095658;28;20024;-58
2024/01/25 01:05:03;;;;;;;532.33;258.85;;;3.10;99.90;;;;;;5095516;28;20031;-58
2024/01/25 01:07:29;;;;;;;534.05;267.13;;;3.10;99.90;;;;;;5095207;28;20382;-58
2024/01/25 01:09:55;;;;;;;566.30;284.95;;;3.20;99.90;;;;;;5094366;28;20012;-58
2024/01/25 01:12:21;;;;;;;570.15;282.55;;;3.20;99.90;;;;;;5095531;28;20111;-58
2024/01/25 01:14:47;;;;;;;573.20;277.52;;;3.20;99.90;;;;;;5095434;28;20036;-58
2024/01/25 01:17:14;;;;;;;575.58;278.65;;;3.20;99.90;;;;;;5095815;28;20127;-58
2024/01/25 01:19:40;;;;;;;541.97;266.10;;;3.10;99.90;;;;;;5099657;28;20059;-58
2024/01/25 01:22:06;;;;;;;526.85;256.63;;;3.10;99.90;;;;;;5099562;28;20039;-58
2024/01/25 01:24:32;;;;;;;547.38;267.95;;;3.10;99.90;;;;;;5099500;28;20389;-58
2024/01/25 01:26:59;;;;;;;527.60;252.30;;;3.10;99.90;;;;;;5099402;28;20051;-58
2024/01/25 01:29:24;;;;;;;535.67;249.82;;;3.30;99.90;;;;;;5099444;28;20091;-58
2024/01/25 01:31:50;;;;;;;504.48;228.80;;;3.40;99.90;;;;;;5099337;28;20071;-58
2024/01/25 01:34:17;;;;;;;479.42;223.45;;;3.40;99.90;;;;;;5099272;28;20373;-57
2024/01/25 01:36:44;;;;;;;476.45;219.75;;;3.50;99.90;;;;;;5099136;28;20142;-58
2024/01/25 01:39:10;;;;;;;456.85;216.43;;;3.60;99.90;;;;;;5099278;28;20024;-57
2024/01/25 01:41:36;;;;;;;439.10;205.75;;;3.50;99.90;;;;;;5099341;28;20130;-57
2024/01/25 01:44:02;;;;;;;422.00;199.98;;;3.60;99.90;;;;;;5099134;28;20521;-58
2024/01/25 01:46:42;;;;;;;419.85;196.27;;;3.60;99.90;;;;;;5098983;28;20047;-57
2024/01/25 01:49:11;;;;;;;397.65;189.80;;;3.50;99.90;;;;;;5098947;28;20026;-57
2024/01/25 01:51:38;;;;;;;398.23;187.00;;;3.40;99.90;;;;;;5099224;28;20468;-57
2024/01/25 01:54:07;;;;;;;378.40;182.27;;;3.30;99.90;;;;;;5098958;28;20386;-58
2024/01/25 01:56:33;;;;;;;393.35;186.25;;;3.30;99.90;;;;;;5098720;28;20538;-57
2024/01/25 01:59:04;;;;;;;433.58;210.18;;;3.40;99.90;;;;;;5098721;28;20036;-57
2024/01/25 02:01:30;;;;;;;471.55;222.77;;;3.40;99.90;;;;;;5098825;28;20544;-58
2024/01/25 02:03:56;;;;;;;368.48;172.23;;;3.40;99.90;;;;;;5098816;28;20039;-58
2024/01/25 02:06:24;;;;;;;363.98;173.00;;;3.40;99.90;;;;;;5098551;28;20027;-58
2024/01/25 02:08:53;;;;;;;344.92;161.98;;;3.50;99.90;;;;;;5098575;28;20024;-57
2024/01/25 02:11:20;;;;;;;313.48;147.68;;;3.50;99.90;;;;;;5098689;28;20114;-58
2024/01/25 02:13:47;;;;;;;303.10;146.02;;;3.40;99.90;;;;;;5098590;28;20024;-58
2024/01/25 02:16:14;;;;;;;307.98;148.43;;;3.40;99.90;;;;;;5098436;28;20036;-58
2024/01/25 02:18:41;;;;;;;313.80;154.38;;;3.30;99.90;;;;;;5098359;28;20032;-58
2024/01/25 02:21:07;;;;;;;287.45;143.30;;;3.20;99.90;;;;;;5098495;28;20093;-58
2024/01/25 02:23:33;;;;;;;324.67;148.23;;;3.20;99.90;;;;;;5098403;28;20097;-58
2024/01/25 02:25:59;;;;;;;359.63;158.90;;;3.20;99.90;;;;;;5098328;28;20036;-58
2024/01/25 02:28:25;;;;;;;349.08;155.48;;;3.20;99.90;;;;;;5097734;28;20130;-58
2024/01/25 02:30:51;;;;;;;354.15;162.18;;;3.30;99.90;;;;;;5098072;28;20028;-58
2024/01/25 02:33:17;;;;;;;350.90;161.85;;;3.40;99.90;;;;;;5098227;28;20108;-58
2024/01/25 02:35:43;;;;;;;388.55;184.00;;;3.30;99.90;;;;;;5098177;28;20048;-57
2024/01/25 02:38:09;;;;;;;392.25;188.18;;;3.20;99.90;;;;;;5098120;28;20035;-58
2024/01/25 02:40:35;;;;;;;373.75;184.27;;;3.20;99.90;;;;;;5098116;28;20050;-58
2024/01/25 02:43:01;;;;;;;366.83;179.05;;;3.10;99.90;;;;;;5097915;28;20035;-58
2024/01/25 02:45:26;;;;;;;365.98;179.23;;;3.00;99.90;;;;;;5097770;28;20031;-58
2024/01/25 02:47:52;;;;;;;350.63;175.48;;;3.10;99.90;;;;;;5097835;28;20386;-58
2024/01/25 02:50:18;;;;;;;353.80;175.13;;;3.00;99.90;;;;;;5098139;28;20600;-58
2024/01/25 02:52:44;;;;;;;352.17;172.68;;;3.00;99.90;;;;;;5097765;28;20024;-58
2024/01/25 02:55:10;;;;;;;345.85;168.27;;;3.10;99.90;;;;;;5097770;28;20397;-58
2024/01/25 02:57:36;;;;;;;333.52;164.75;;;3.10;99.90;;;;;;5095720;28;20474;-58
2024/01/25 03:00:02;;;;;;;334.65;163.27;;;3.20;99.90;;;;;;5097541;28;20020;-58
2024/01/25 03:02:28;;;;;;;327.35;161.88;;;3.10;99.90;;;;;;5097639;28;20052;-58
2024/01/25 03:04:54;;;;;;;327.30;165.93;;;3.10;99.90;;;;;;5097600;28;20039;-57
2024/01/25 03:07:20;;;;;;;326.52;162.55;;;3.10;99.90;;;;;;5097279;28;20035;-57
2024/01/25 03:09:46;;;;;;;308.77;152.15;;;3.10;99.90;;;;;;5097269;28;20032;-58
2024/01/25 03:12:12;;;;;;;315.60;155.32;;;3.00;99.90;;;;;;5097357;28;20046;-57
2024/01/25 03:14:38;;;;;;;313.55;152.40;;;3.10;99.90;;;;;;5097318;28;20028;-58
2024/01/25 03:17:04;;;;;;;328.30;156.27;;;3.00;99.90;;;;;;5097312;28;20032;-58
2024/01/25 03:19:29;;;;;;;322.92;163.93;;;3.00;99.90;;;;;;5097507;28;20439;-58
2024/01/25 03:21:55;;;;;;;309.75;155.30;;;2.90;99.90;;;;;;5097281;28;20028;-58
2024/01/25 03:24:22;;;;;;;315.27;152.38;;;2.90;99.90;;;;;;5097071;28;20036;-58
2024/01/25 03:26:48;;;;;;;281.63;144.30;;;2.90;99.90;;;;;;5097005;28;20043;-57
2024/01/25 03:29:14;;;;;;;277.95;137.65;;;2.90;99.90;;;;;;5097108;28;20567;-58
2024/01/25 03:31:40;;;;;;;272.85;134.55;;;3.00;99.90;;;;;;5096955;28;20044;-58
2024/01/25 03:34:06;;;;;;;286.63;141.38;;;3.10;99.90;;;;;;5097080;28;20415;-57
2024/01/25 03:36:32;;;;;;;289.70;143.20;;;3.10;99.90;;;;;;5096893;28;20381;-57
2024/01/25 03:38:58;;;;;;;296.42;142.73;;;3.10;99.90;;;;;;5096868;28;20032;-58
2024/01/25 03:41:24;;;;;;;280.73;138.23;;;3.00;99.90;;;;;;5096136;28;20085;-58
2024/01/25 03:43:51;;;;;;;285.38;140.80;;;3.10;99.90;;;;;;5096859;28;20121;-58
2024/01/25 03:46:17;;;;;;;289.30;142.18;;;3.00;99.90;;;;;;5096593;28;20071;-58
2024/01/25 03:48:43;;;;;;;261.00;130.75;;;2.90;99.90;;;;;;5096782;28;20034;-57
2024/01/25 03:51:09;;;;;;;274.90;134.45;;;3.00;99.90;;;;;;5096771;28;20020;-58
2024/01/25 03:53:35;;;;;;;280.55;137.13;;;3.20;99.90;;;;;;5096582;28;20028;-58
2024/01/25 03:56:01;;;;;;;286.75;139.52;;;3.30;99.90;;;;;;5096672;28;20077;-58
2024/01/25 03:58:26;;;;;;;290.75;144.57;;;3.30;99.90;;;;;;5096403;28;20060;-58
2024/01/25 04:00:53;;;;;;;281.42;142.90;;;3.30;99.90;;;;;;5096565;28;20023;-58
2024/01/25 04:03:18;;;;;;;407.50;219.57;;;3.00;99.90;;;;;;5096572;28;20024;-58
2024/01/25 04:05:44;;;;;;;297.55;146.75;;;3.00;99.90;;;;;;5096495;28;20153;-57
2024/01/25 04:08:10;;;;;;;295.50;141.32;;;2.90;99.90;;;;;;5096049;28;20031;-57
2024/01/25 04:10:36;;;;;;;312.77;149.32;;;2.90;99.90;;;;;;5096433;28;20023;-58
2024/01/25 04:13:04;;;;;;;317.15;157.73;;;2.90;99.90;;;;;;5096349;28;20366;-58
2024/01/25 04:15:30;;;;;;;296.73;140.00;;;2.90;99.90;;;;;;5096035;28;20058;-58
2024/01/25 04:17:56;;;;;;;284.48;136.65;;;3.00;99.90;;;;;;5096148;28;20028;-58
2024/01/25 04:20:22;;;;;;;288.33;138.00;;;3.00;99.90;;;;;;5096142;28;20377;-58
2024/01/25 04:22:48;;;;;;;282.73;133.50;;;2.90;99.90;;;;;;5096135;28;20110;-57
2024/01/25 04:25:15;;;;;;;277.33;135.00;;;3.00;99.90;;;;;;5096075;28;20052;-58
2024/01/25 04:27:41;;;;;;;281.10;132.15;;;3.10;99.90;;;;;;5094637;28;20039;-57
2024/01/25 04:30:07;;;;;;;263.83;130.75;;;3.10;99.90;;;;;;5096040;28;20101;-57
2024/01/25 04:32:33;;;;;;;263.05;128.95;;;3.10;99.90;;;;;;5095845;28;20064;-58
2024/01/25 04:35:00;;;;;;;254.55;123.97;;;3.20;99.90;;;;;;5095930;28;20039;-58
2024/01/25 04:37:26;;;;;;;288.13;138.18;;;3.20;99.90;;;;;;5095792;28;20024;-58
2024/01/25 04:39:52;;;;;;;273.98;133.90;;;3.20;99.90;;;;;;5095923;28;20032;-58
2024/01/25 04:42:18;;;;;;;277.05;137.30;;;3.20;99.90;;;;;;5096103;28;20074;-58
2024/01/25 04:44:44;;;;;;;283.67;135.05;;;3.30;99.90;;;;;;5095992;28;20074;-57
2024/01/25 04:47:10;;;;;;;291.98;141.38;;;3.20;99.90;;;;;;5094440;28;20083;-58
2024/01/25 04:49:36;;;;;;;287.08;139.15;;;3.20;99.90;;;;;;5095729;28;20063;-58
2024/01/25 04:52:02;;;;;;;240.63;122.50;;;3.10;99.90;;;;;;5095557;28;20466;-58
2024/01/25 04:54:28;;;;;;;238.15;119.95;;;3.20;99.90;;;;;;5095684;28;20024;-57
2024/01/25 04:56:54;;;;;;;251.35;125.40;;;3.10;99.90;;;;;;5095433;28;20097;-58
2024/01/25 04:59:20;;;;;;;248.13;122.68;;;3.20;99.90;;;;;;5095535;28;20115;-58
2024/01/25 05:01:46;;;;;;;241.05;120.50;;;3.20;99.90;;;;;;5095646;28;20059;-57
2024/01/25 05:04:12;;;;;;;206.20;103.03;;;3.30;99.90;;;;;;5095551;28;20086;-58
2024/01/25 05:06:38;;;;;;;229.60;111.90;;;3.30;99.90;;;;;;5095356;28;20476;-58
2024/01/25 05:09:04;;;;;;;220.90;110.43;;;3.30;99.90;;;;;;5095765;28;20046;-58
2024/01/25 05:11:30;;;;;;;228.05;111.70;;;3.30;99.90;;;;;;5095627;28;20086;-58
2024/01/25 05:13:56;;;;;;;194.65;99.50;;;3.20;99.90;;;;;;5095536;28;20067;-58
2024/01/25 05:16:21;;;;;;;199.00;97.90;;;3.30;99.90;;;;;;5095390;28;20035;-58
2024/01/25 05:18:47;;;;;;;213.68;102.68;;;3.30;99.90;;;;;;5095613;28;20044;-58
2024/01/25 05:21:13;;;;;;;216.38;103.95;;;3.40;99.90;;;;;;5095354;28;20052;-58
2024/01/25 05:23:39;;;;;;;200.48;98.53;;;3.50;99.90;;;;;;5095436;28;20032;-58
2024/01/25 05:26:06;;;;;;;178.10;91.55;;;3.50;99.90;;;;;;5095405;28;20115;-58
2024/01/25 05:28:32;;;;;;;168.50;86.25;;;3.50;99.90;;;;;;5095446;28;20055;-58
2024/01/25 05:30:57;;;;;;;183.43;88.18;;;3.50;99.90;;;;;;5095266;28;20028;-58
2024/01/25 05:33:23;;;;;;;207.95;94.45;;;3.60;99.90;;;;;;5095330;28;20036;-58
2024/01/25 05:35:49;;;;;;;191.98;93.03;;;3.60;99.90;;;;;;5095239;28;20055;-58
2024/01/25 05:38:16;;;;;;;185.27;92.80;;;3.60;99.90;;;;;;5095287;28;20099;-58
2024/01/25 05:40:42;;;;;;;207.77;100.93;;;3.60;99.90;;;;;;5095172;28;20082;-58
2024/01/25 05:43:08;;;;;;;196.98;96.43;;;3.70;99.90;;;;;;5095248;28;20020;-57
2024/01/25 05:45:34;;;;;;;196.80;99.22;;;3.70;99.90;;;;;;5095259;28;20032;-58
2024/01/25 05:48:00;;;;;;;212.30;105.68;;;3.40;99.90;;;;;;5094967;28;20040;-58
2024/01/25 05:50:25;;;;;;;184.60;86.97;;;3.50;99.90;;;;;;5095038;28;20051;-58
2024/01/25 05:52:51;;;;;;;158.25;76.95;;;3.40;99.90;;;;;;5095200;28;20103;-58
2024/01/25 05:55:17;;;;;;;180.77;87.22;;;3.50;99.90;;;;;;5095072;28;20031;-58
2024/01/25 05:57:44;;;;;;;169.43;84.97;;;3.50;99.90;;;;;;5094842;28;20048;-58
2024/01/25 06:00:13;;;;;;;176.10;85.72;;;3.60;99.90;;;;;;5095091;28;20495;-58
2024/01/25 06:02:39;;;;;;;188.13;95.78;;;3.50;99.90;;;;;;5094922;28;20088;-58
2024/01/25 06:05:05;;;;;;;176.85;90.18;;;3.60;99.90;;;;;;5097877;28;20032;-58
2024/01/25 06:07:30;;;;;;;149.10;73.07;;;3.60;99.90;;;;;;5098448;28;20039;-58
2024/01/25 06:09:56;;;;;;;161.25;76.90;;;3.60;99.90;;;;;;5098355;28;20454;-58
2024/01/25 06:12:22;;;;;;;159.23;79.00;;;3.60;99.90;;;;;;5098559;28;20020;-58
2024/01/25 06:14:48;;;;;;;189.05;90.22;;;3.70;99.90;;;;;;5098709;28;20032;-58
2024/01/25 06:17:14;;;;;;;157.23;81.20;;;3.70;99.90;;;;;;5098815;28;20036;-57
2024/01/25 06:19:40;;;;;;;170.68;88.68;;;3.80;99.90;;;;;;5098916;28;20028;-58
2024/01/25 06:22:06;;;;;;;208.88;102.13;;;3.70;99.90;;;;;;5098297;28;20035;-58
2024/01/25 06:25:07;;;;;;;172.85;82.68;;;3.70;99.90;;;;;;5092685;28;20062;-58
2024/01/25 06:31:43;;;;;;;172.38;81.47;;;3.70;99.90;;;;;;5061259;28;20039;-58
2024/01/25 06:34:10;;;;;;;173.43;81.32;;;3.60;99.90;;;;;;5097878;28;20058;-58
2024/01/25 06:36:36;;;;;;;168.00;83.38;;;3.70;99.90;;;;;;5097961;28;20428;-58
2024/01/25 06:39:02;;;;;;;176.02;86.75;;;3.80;99.90;;;;;;5098039;28;20107;-58
2024/01/25 06:41:28;;;;;;;152.60;78.65;;;3.90;99.90;;;;;;5098037;28;20031;-58
2024/01/25 06:43:54;;;;;;;172.38;86.78;;;3.80;99.90;;;;;;5093506;28;20032;-58
2024/01/25 06:46:20;;;;;;;167.68;81.65;;;3.80;99.90;;;;;;5077357;28;20028;-58
2024/01/25 06:48:46;;;;;;;126.95;62.33;;;3.70;99.90;;;;;;5077619;28;20355;-58
2024/01/25 06:51:13;;;;;;;149.82;78.47;;;3.80;99.90;;;;;;5082323;28;20016;-58
2024/01/25 06:53:39;;;;;;;175.77;82.85;;;3.80;99.90;;;;;;5092639;28;20016;-58
2024/01/25 06:56:06;;;;;;;165.77;79.80;;;3.80;99.90;;;;;;5086725;28;20036;-58
2024/01/25 06:58:32;;;;;;;161.35;80.18;;;3.80;99.90;;;;;;5090970;28;20024;-58
2024/01/25 07:00:59;;;;;;;168.35;81.70;;;3.80;99.90;;;;;;5097302;28;20028;-58
2024/01/25 07:03:24;;;;;;;182.00;91.93;;;3.80;99.90;;;;;;5097472;28;20063;-58
2024/01/25 07:05:50;;;;;;;202.45;95.28;;;3.90;99.90;;;;;;5095969;28;20036;-58
2024/01/25 07:08:16;;;;;;;192.63;94.28;;;3.90;99.90;;;;;;5095536;28;20031;-58
2024/01/25 07:10:44;;;;;;;181.85;89.93;;;3.90;99.90;;;;;;5091062;28;20032;-58
2024/01/25 07:13:10;;;;;;;167.02;87.85;;;3.90;99.90;;;;;;5096905;28;20530;-58
2024/01/25 07:15:35;;;;;;;142.82;74.63;;;4.00;99.90;;;;;;5094523;28;20143;-58
2024/01/25 07:18:01;;;;;;;162.30;76.95;;;4.00;99.90;;;;;;5097466;28;20028;-58
2024/01/25 07:20:27;;;;;;;181.00;85.95;;;3.90;99.90;;;;;;5090883;28;20119;-58
2024/01/25 07:22:53;;;;;;;179.07;84.65;;;3.70;99.90;;;;;;5092064;28;20028;-58
2024/01/25 07:25:20;;;;;;;163.48;85.20;;;3.80;99.90;;;;;;5096491;28;20024;-58
2024/01/25 07:27:47;;;;;;;165.38;87.13;;;3.70;99.90;;;;;;5096505;28;20044;-58
2024/01/25 07:30:13;;;;;;;138.90;69.10;;;3.80;99.90;;;;;;5094378;28;20055;-58
2024/01/25 07:32:42;;;;;;;155.65;76.72;;;4.00;99.90;;;;;;5096780;28;20496;-58
2024/01/25 07:35:11;;;;;;;169.38;82.70;;;4.00;99.90;;;;;;5095959;28;20024;-58
2024/01/25 07:37:38;;;;;;;189.65;96.50;;;4.00;99.90;;;;;;5096013;28;20413;-58
2024/01/25 07:40:06;;;;;;;184.70;93.70;;;4.10;99.90;;;;;;5096346;28;20032;-58
2024/01/25 07:42:32;;;;;;;182.88;95.60;;;4.20;99.90;;;;;;5091909;28;20108;-58
2024/01/25 07:48:48;;;;;;;189.90;99.97;;;5.50;99.90;;;;;;5077190;28;20047;-58
2024/01/25 07:51:13;;;;;;;219.07;107.85;;;5.90;99.90;;;;;;5096123;28;20119;-58
2024/01/25 07:53:39;;;;;;;245.05;120.90;;;6.10;99.90;;;;;;5096496;28;20071;-58
2024/01/25 07:56:09;;;;;;;243.80;120.40;;;6.20;99.90;;;;;;5096583;28;20032;-58
2024/01/25 07:58:36;;;;;;;266.45;127.28;;;6.20;99.90;;;;;;5095289;28;20055;-58
2024/01/25 08:01:05;;;;;;;277.02;133.30;;;6.00;99.90;;;;;;5095590;28;20107;-58
2024/01/25 08:03:32;;;;;;;270.67;131.10;;;5.70;99.90;;;;;;5091030;28;20024;-58
2024/01/25 08:05:59;;;;;;;277.10;133.55;;;5.80;99.90;;;;;;5076086;28;20036;-58
2024/01/25 08:08:26;;;;;;;275.17;131.55;;;6.10;99.90;;;;;;5076220;28;20509;-58
2024/01/25 08:10:51;;;;;;;228.90;115.60;;;7.30;99.90;;;;;;5075571;28;20040;-58
2024/01/25 08:13:17;;;;;;;260.05;129.05;;;8.70;99.90;;;;;;5075803;28;20031;-58
2024/01/25 08:15:43;;;;;;;259.80;126.60;;;8.90;99.90;;;;;;5078433;28;20038;-58
2024/01/25 08:18:09;;;;;;;235.40;115.82;;;8.80;99.90;;;;;;5088857;28;20076;-58
2024/01/25 08:20:37;;;;;;;228.50;115.22;;;8.90;99.90;;;;;;5073885;28;20037;-58
2024/01/25 08:23:03;;;;;;;229.98;112.18;;;9.50;99.90;;;;;;5083204;28;20055;-58
2024/01/25 08:25:29;;;;;;;224.50;109.13;;;10.50;99.10;;;;;;5085252;28;20032;-59
2024/01/25 08:27:55;;;;;;;206.85;106.32;;;11.40;96.60;;;;;;5093741;28;20501;-58
2024/01/25 08:30:21;;;;;;;214.55;106.90;;;12.30;94.90;;;;;;5092544;28;20131;-59
2024/01/25 08:32:47;;;;;;;205.32;104.85;;;13.10;92.90;;;;;;5094385;28;20016;-59
2024/01/25 08:35:13;;;;;;;195.75;104.00;;;13.30;90.50;;;;;;5092724;28;20028;-59
2024/01/25 08:37:39;;;;;;;213.65;107.35;;;13.20;87.70;;;;;;5095130;28;20020;-59
2024/01/25 08:40:06;;;;;;;199.35;105.90;;;13.20;89.00;;;;;;5095008;28;20499;-58
2024/01/25 08:42:32;;;;;;;204.30;104.07;;;12.90;87.20;;;;;;5094997;28;20043;-58
2024/01/25 08:44:58;;;;;;;207.50;112.90;;;13.30;88.20;;;;;;5095189;28;20028;-58
2024/01/25 08:47:24;;;;;;;220.52;108.20;;;12.60;87.40;;;;;;5094813;28;20047;-59
2024/01/25 08:49:50;;;;;;;201.48;106.78;;;12.40;85.90;;;;;;5094796;28;20043;-58
2024/01/25 08:52:16;;;;;;;230.68;119.20;;;12.30;89.60;;;;;;5095270;28;20024;-59
2024/01/25 08:54:42;;;;;;;220.55;115.95;;;12.00;90.30;;;;;;5095332;28;20024;-58
2024/01/25 08:57:07;;;;;;;214.07;115.35;;;11.50;88.70;;;;;;5094015;28;20533;-58
2024/01/25 08:59:37;;;;;;;239.48;127.40;;;11.50;90.30;;;;;;5093801;28;20207;-58
2024/01/25 09:02:06;;;;;;;245.23;134.23;;;11.20;90.00;;;;;;5093251;28;20529;-58
2024/01/25 09:04:32;;;;;;;246.93;133.93;;;10.90;91.50;;;;;;5082181;28;20024;-58
2024/01/25 09:06:59;;;;;;;249.50;135.68;;;11.00;93.10;;;;;;5074566;28;20416;-59
2024/01/25 09:09:25;;;;;;;253.85;139.65;;;11.10;92.30;;;;;;5079127;28;20029;-58
2024/01/25 09:11:51;;;;;;;320.17;169.20;;;11.60;92.00;;;;;;5092733;28;20303;-59
2024/01/25 09:14:17;;;;;;;308.58;165.70;;;12.10;90.90;;;;;;5095617;28;20071;-59
2024/01/25 09:16:43;;;;;;;268.67;148.40;;;12.60;88.70;;;;;;5093831;28;20032;-59
2024/01/25 09:19:09;;;;;;;269.83;144.02;;;13.60;90.30;;;;;;5093191;28;20097;-59
2024/01/25 09:21:37;;;;;;;206.57;116.80;;;14.50;86.60;;;;;;5095554;28;20032;-59
2024/01/25 09:24:04;;;;;;;245.00;132.63;;;15.50;81.90;;;;;;5094354;28;20543;-59
2024/01/25 09:26:29;;;;;;;242.13;120.05;;;16.10;78.10;;;;;;5093952;28;20393;-59
2024/01/25 09:28:55;;;;;;;107.60;57.42;;;15.20;75.30;;;;;;5093751;28;20107;-58
2024/01/25 09:31:21;;;;;;;101.10;57.10;;;15.00;75.50;;;;;;5092890;28;20043;-59
2024/01/25 09:33:47;;;;;;;98.03;55.70;;;14.40;78.40;;;;;;5094773;28;20020;-59
2024/01/25 09:36:13;;;;;;;73.53;40.83;;;14.40;79.60;;;;;;5088280;28;20475;-58
2024/01/25 09:38:38;;;;;;;70.70;39.05;;;14.20;79.40;;;;;;5076008;28;20028;-59
2024/01/25 09:41:04;;;;;;;63.45;35.55;;;13.90;80.00;;;;;;5078011;28;20056;-58
2024/01/25 09:43:31;;;;;;;86.00;47.05;;;13.60;79.10;;;;;;5089944;28;20130;-58
2024/01/25 09:45:56;;;;;;;102.03;54.45;;;13.10;79.70;;;;;;5078621;28;20040;-59
2024/01/25 09:48:26;;;;;;;92.30;51.97;;;12.60;83.30;;;;;;5078248;28;20033;-58
2024/01/25 09:50:55;;;;;;;94.45;50.97;;;12.70;84.30;;;;;;5078537;28;20032;-58
2024/01/25 09:53:23;;;;;;;89.18;49.88;;;12.60;83.80;;;;;;5091083;28;20027;-58
2024/01/25 09:56:09;;;;;;;88.50;49.30;;;12.30;86.50;;;;;;5097435;28;20035;-58
2024/01/25 09:58:45;;;;;;;87.32;48.75;;;12.30;87.20;;;;;;5094045;28;20020;-58
2024/01/25 10:01:15;;;;;;;90.90;49.70;;;12.40;87.80;;;;;;5095157;28;20024;-59
2024/01/25 10:03:47;;;;;;;77.43;42.55;;;12.40;89.30;;;;;;5094801;28;20141;-58
2024/01/25 10:06:15;;;;;;;73.47;40.95;;;12.30;89.10;;;;;;5096818;28;20020;-58
2024/01/25 10:08:41;;;;;;;70.28;39.72;;;12.30;90.00;;;;;;5096686;28;20377;-58
2024/01/25 10:11:14;;;;;;;70.15;36.67;;;12.10;89.50;;;;;;5097373;28;20020;-58
2024/01/25 10:13:50;;;;;;;78.53;39.83;;;12.20;89.70;;;;;;5097537;28;20482;-58
2024/01/25 10:16:18;;;;;;;57.70;29.83;;;12.30;90.30;;;;;;5097952;28;20028;-58
2024/01/25 10:18:46;;;;;;;57.00;29.67;;;12.30;89.70;;;;;;5097224;28;20320;-59
2024/01/25 10:21:14;;;;;;;52.45;26.33;;;12.50;90.70;;;;;;5097281;28;20119;-58
2024/01/25 10:23:41;;;;;;;52.85;29.63;;;12.60;89.20;;;;;;5096215;28;20020;-58
2024/01/25 10:26:10;;;;;;;56.10;30.42;;;12.60;87.30;;;;;;5097403;28;20028;-58
2024/01/25 10:28:36;;;;;;;48.50;25.13;;;12.30;86.30;;;;;;5094877;28;20020;-58
2024/01/25 10:31:04;;;;;;;51.15;22.95;;;12.80;90.00;;;;;;5096587;28;20469;-59
2024/01/25 10:33:30;;;;;;;55.60;23.00;;;13.60;82.80;;;;;;5097557;28;20363;-59
2024/01/25 10:36:02;;;;;;;61.30;23.00;;;15.10;83.10;;;;;;5097778;28;20020;-59
2024/01/25 10:38:31;;;;;;;48.42;21.48;;;15.90;77.20;;;;;;5097471;28;20020;-59
2024/01/25 10:41:01;;;;;;;52.28;20.33;;;17.30;70.90;;;;;;5097565;28;20024;-59
2024/01/25 10:43:31;;;;;;;55.53;19.17;;;17.90;66.00;;;;;;5097982;28;20489;-59
2024/01/25 10:45:58;;;;;;;54.60;17.75;;;18.70;64.00;;;;;;5088651;28;20040;-59
2024/01/25 10:48:28;;;;;;;53.50;18.33;;;19.50;57.40;;;;;;5085383;28;20048;-59
2024/01/25 10:50:55;;;;;;;44.20;16.30;;;19.40;54.40;;;;;;5088773;28;20024;-59
2024/01/25 10:53:23;;;;;;;61.25;18.55;;;18.50;54.90;;;;;;5077555;28;20042;-59
2024/01/25 10:55:49;;;;;;;48.95;17.17;;;18.60;57.60;;;;;;5096826;28;20152;-59
2024/01/25 10:58:20;;;;;;;52.83;17.65;;;18.30;55.30;;;;;;5097354;28;20097;-59
2024/01/25 11:00:55;;;;;;;51.95;17.15;;;18.00;56.20;;;;;;5096007;28;20020;-59
2024/01/25 11:03:30;;;;;;;36.22;16.15;;;18.20;54.20;;;;;;5076301;28;20092;-59
2024/01/25 11:06:09;;;;;;;52.05;17.60;;;18.20;54.20;;;;;;5077716;28;20033;-59
2024/01/25 11:08:39;;;;;;;53.47;16.90;;;18.70;54.30;;;;;;5087610;28;20037;-59
2024/01/25 11:11:11;;;;;;;49.05;17.33;;;18.70;51.80;;;;;;5076720;28;20028;-59
2024/01/25 11:13:44;;;;;;;29.45;15.48;;;18.10;50.70;;;;;;5090190;28;20021;-59
2024/01/25 11:16:18;;;;;;;53.35;17.83;;;17.90;52.60;;;;;;5095683;28;20549;-59
2024/01/25 11:18:49;;;;;;;44.42;17.17;;;19.10;54.00;;;;;;5096963;28;20032;-59
2024/01/25 11:21:42;;;;;;;52.13;23.10;;;19.70;47.90;;;;;;5097236;28;20020;-60
2024/01/25 11:24:20;;;;;;;61.10;22.58;;;19.60;47.80;;;;;;5086944;28;20447;-59
2024/01/25 11:26:47;;;;;;;52.55;20.13;;;19.50;47.20;;;;;;5093196;28;20044;-60
2024/01/25 11:29:16;;;;;;;42.35;21.92;;;19.70;47.80;;;;;;5097165;28;20082;-59
2024/01/25 11:31:46;;;;;;;46.35;21.63;;;19.50;46.30;;;;;;5096410;28;20398;-59
2024/01/25 11:34:15;;;;;;;42.90;20.60;;;19.20;47.60;;;;;;5097026;28;20056;-60
2024/01/25 11:36:42;;;;;;;59.40;24.17;;;19.50;46.10;;;;;;5096779;28;20564;-59
2024/01/25 11:39:12;;;;;;;57.95;25.15;;;19.20;45.40;;;;;;5089938;28;20042;-59
2024/01/25 11:41:38;;;;;;;67.00;23.38;;;18.90;47.90;;;;;;5096455;28;20519;-59
2024/01/25 11:44:04;;;;;;;60.33;22.25;;;19.10;47.10;;;;;;5095515;28;20027;-59
2024/01/25 11:46:31;;;;;;;36.80;20.65;;;18.70;47.40;;;;;;5094772;28;20484;-59
2024/01/25 11:48:58;;;;;;;63.53;23.85;;;18.30;45.80;;;;;;5095593;28;20072;-59
2024/01/25 11:51:24;;;;;;;54.10;22.90;;;18.90;46.40;;;;;;5096000;28;20036;-59
2024/01/25 11:53:50;;;;;;;50.13;23.50;;;18.70;46.40;;;;;;5095341;28;20073;-59
2024/01/25 11:56:24;;;;;;;58.17;25.10;;;19.30;46.20;;;;;;5095504;28;20099;-59
2024/01/25 11:58:50;;;;;;;66.15;24.17;;;20.60;45.20;;;;;;5096004;28;20048;-59
2024/01/25 12:01:18;;;;;;;50.78;22.80;;;20.70;42.50;;;;;;5088727;28;20378;-59
2024/01/25 12:03:44;;;;;;;27.85;13.13;;;20.00;41.70;;;;;;5081179;28;20092;-59
2024/01/25 12:06:10;;;;;;;19.30;10.05;;;18.90;43.60;;;;;;5087093;28;20099;-59
2024/01/25 12:08:36;;;;;;;18.90;10.68;;;18.80;45.00;;;;;;5093481;28;20040;-59
2024/01/25 12:11:09;;;;;;;11.23;6.40;;;18.90;44.60;;;;;;5095267;28;20028;-59
2024/01/25 12:13:38;;;;;;;15.45;5.97;;;19.30;44.20;;;;;;5093286;28;20123;-59
2024/01/25 12:16:04;;;;;;;6.68;3.78;;;20.10;43.50;;;;;;5094721;28;20020;-59
2024/01/25 12:18:31;;;;;;;14.43;5.03;;;20.20;39.30;;;;;;5095369;28;20032;-59
2024/01/25 12:21:01;;;;;;;15.25;5.97;;;19.90;42.50;;;;;;5095531;28;20021;-59
2024/01/25 12:23:38;;;;;;;20.03;6.57;;;19.30;41.60;;;;;;5095697;28;20035;-59
2024/01/25 12:26:08;;;;;;;16.65;6.07;;;18.80;43.40;;;;;;5095066;28;20059;-59
2024/01/25 12:28:34;;;;;;;16.00;5.35;;;18.90;42.80;;;;;;5095688;28;20036;-59